Time;durP1;ratioP1;P1;durP2;ratioP2;P2;SDS_P1;SDS_P2;PMS_P1;PMS_P2;Temp;Humidity;BMP_temperature;BMP_pressure;BME280_temperature;BME280_humidity;BME280_pressure;Samples;Min_cycle;Max_cycle;Signal;HPM_P1;HPM_P2
2022/11/14 00:02:01;;;;;;;13.85;10.35;;;;;;;5.97;72.33;101441.22;5082510;28;20016;-88
2022/11/14 00:04:26;;;;;;;13.82;9.25;;;;;;;5.97;72.05;101447.34;5066247;28;20078;-89
2022/11/14 00:06:52;;;;;;;13.60;9.75;;;;;;;5.93;73.23;101452.66;5089567;28;20068;-88
2022/11/14 00:09:17;;;;;;;16.17;10.30;;;;;;;5.93;73.14;101453.53;5083470;28;20033;-89
2022/11/14 00:11:42;;;;;;;13.38;10.38;;;;;;;5.95;73.72;101430.75;5070398;28;20048;-88
2022/11/14 00:14:11;;;;;;;15.75;10.15;;;;;;;6.01;72.94;101435.03;5060982;28;20024;-88
2022/11/14 00:16:36;;;;;;;13.73;9.60;;;;;;;5.96;73.63;101431.59;5088068;28;20039;-88
2022/11/14 00:19:02;;;;;;;12.85;9.82;;;;;;;5.90;72.45;101429.91;5088107;28;20431;-88
2022/11/14 00:21:27;;;;;;;13.07;9.20;;;;;;;5.97;73.02;101451.72;5088197;28;20040;-88
2022/11/14 00:23:52;;;;;;;16.27;9.80;;;;;;;5.97;73.35;101443.84;5087947;28;20024;-88
2022/11/14 00:26:17;;;;;;;12.88;9.20;;;;;;;5.85;72.88;101422.06;5067925;28;20031;-88
2022/11/14 00:28:43;;;;;;;11.55;9.52;;;;;;;5.84;72.88;101422.09;5066477;28;20077;-88
2022/11/14 00:31:09;;;;;;;12.82;9.00;;;;;;;5.88;71.25;101426.44;5069821;28;20031;-88
2022/11/14 00:33:34;;;;;;;13.77;9.18;;;;;;;5.75;71.37;101424.81;5085612;28;20028;-88
2022/11/14 00:36:00;;;;;;;12.85;8.60;;;;;;;5.68;72.21;101412.66;5067311;28;20165;-88
2022/11/14 00:38:25;;;;;;;11.38;8.80;;;;;;;5.74;72.44;101425.72;5067982;28;20361;-88
2022/11/14 00:40:51;;;;;;;12.02;9.23;;;;;;;5.71;71.98;101433.63;5087455;28;20039;-89
2022/11/14 00:43:17;;;;;;;13.63;9.18;;;;;;;5.62;72.53;101424.94;5090093;28;20024;-88
2022/11/14 00:45:43;;;;;;;14.75;8.75;;;;;;;5.53;72.62;101408.44;5085286;28;20111;-88
2022/11/14 00:48:09;;;;;;;14.40;9.07;;;;;;;5.51;71.91;101423.34;5088047;28;20404;-88
2022/11/14 00:50:34;;;;;;;12.07;9.15;;;;;;;5.46;73.95;101423.38;5069889;28;20032;-88
2022/11/14 00:52:59;;;;;;;12.82;8.93;;;;;;;5.46;73.79;101414.66;5088769;28;20020;-88
2022/11/14 00:55:25;;;;;;;11.32;7.80;;;;;;;5.47;72.17;101409.38;5072138;28;20024;-87
2022/11/14 00:57:50;;;;;;;13.75;9.55;;;;;;;5.45;74.31;101405.00;5090364;28;20099;-88
2022/11/14 01:00:15;;;;;;;13.27;9.05;;;;;;;5.49;73.56;101402.34;5071669;28;20024;-88
2022/11/14 01:02:41;;;;;;;12.25;9.13;;;;;;;5.57;73.38;101407.53;5071262;28;20025;-88
2022/11/14 01:05:06;;;;;;;14.27;8.88;;;;;;;5.56;74.23;101397.94;5091750;28;20399;-88
2022/11/14 01:07:31;;;;;;;12.27;8.73;;;;;;;5.56;73.87;101396.16;5089572;28;20036;-89
2022/11/14 01:09:57;;;;;;;12.68;8.55;;;;;;;5.54;73.59;101391.81;5086988;28;20039;-88
2022/11/14 01:12:22;;;;;;;11.65;8.80;;;;;;;5.56;73.37;101395.31;5088336;28;20032;-90
2022/11/14 01:14:47;;;;;;;14.18;9.27;;;;;;;5.46;74.03;101381.41;5090603;28;20031;-88
2022/11/14 01:17:12;;;;;;;12.75;8.90;;;;;;;5.52;73.61;101390.97;5073927;28;20467;-88
2022/11/14 01:19:38;;;;;;;13.45;9.68;;;;;;;5.45;73.62;101363.94;5068370;28;20032;-88
2022/11/14 01:22:03;;;;;;;13.55;9.15;;;;;;;5.55;73.44;101369.97;5074486;28;20012;-88
2022/11/14 01:24:32;;;;;;;13.73;9.45;;;;;;;5.60;73.77;101369.03;5089379;28;20028;-88
2022/11/14 01:26:57;;;;;;;13.18;9.65;;;;;;;5.56;73.33;101354.22;5066925;28;20027;-88
2022/11/14 01:29:22;;;;;;;14.68;8.82;;;;;;;5.54;73.71;101345.47;5077838;28;20031;-88
2022/11/14 01:31:48;;;;;;;15.27;9.10;;;;;;;5.62;73.58;101353.25;5070442;28;20036;-87
2022/11/14 01:34:13;;;;;;;9.75;8.27;;;;;;;5.47;73.72;101328.09;5071452;28;20371;-88
2022/11/14 01:36:38;;;;;;;11.73;8.75;;;;;;;5.47;73.75;101335.09;5063661;28;20035;-88
2022/11/14 01:39:03;;;;;;;10.90;8.32;;;;;;;5.42;73.79;101345.63;5074189;28;20027;-88
2022/11/14 01:41:29;;;;;;;12.63;8.18;;;;;;;5.28;73.24;101321.31;5089979;28;20020;-89
2022/11/14 01:43:54;;;;;;;13.38;7.97;;;;;;;5.41;73.78;101350.88;5060089;28;20124;-88
2022/11/14 01:46:28;;;;;;;9.68;7.45;;;;;;;5.35;73.45;101355.28;5069022;28;20032;-89
2022/11/14 01:49:05;;;;;;;10.10;7.25;;;;;;;5.34;73.76;101356.19;5084519;28;20070;-88
2022/11/14 01:51:41;;;;;;;12.48;8.10;;;;;;;5.29;73.84;101336.16;5070763;28;20111;-88
2022/11/14 01:54:15;;;;;;;8.98;7.22;;;;;;;5.35;73.05;101343.94;5085917;28;20166;-88
2022/11/14 01:56:46;;;;;;;10.85;7.65;;;;;;;5.26;73.59;101344.91;5069362;28;20288;-88
2022/11/14 01:59:16;;;;;;;9.73;7.85;;;;;;;5.24;73.10;101353.69;5062742;28;20036;-88
2022/11/14 02:01:50;;;;;;;9.55;7.28;;;;;;;5.10;72.82;101330.22;5069185;28;20058;-88
2022/11/14 02:04:21;;;;;;;10.65;7.47;;;;;;;5.14;73.04;101342.41;5071861;28;20040;-88
2022/11/14 02:06:47;;;;;;;10.27;7.72;;;;;;;5.00;73.75;101318.09;5065872;28;20020;-88
2022/11/14 02:09:13;;;;;;;10.27;7.15;;;;;;;5.12;73.73;101328.44;5068973;28;20028;-88
2022/11/14 02:11:42;;;;;;;8.02;6.72;;;;;;;5.08;74.16;101321.50;5071175;28;20127;-89
2022/11/14 02:14:08;;;;;;;11.38;7.80;;;;;;;4.97;73.89;101316.38;5085398;28;20387;-89
2022/11/14 02:16:33;;;;;;;11.80;7.32;;;;;;;5.08;72.37;101338.13;5081180;28;20029;-89
2022/11/14 02:18:59;;;;;;;11.95;7.68;;;;;;;5.02;74.38;101337.28;5072384;28;20298;-88
2022/11/14 02:21:24;;;;;;;10.05;7.38;;;;;;;4.83;74.97;101311.25;5072464;28;20044;-88
2022/11/14 02:23:49;;;;;;;11.90;8.60;;;;;;;4.88;74.91;101337.41;5089531;28;20547;-88
2022/11/14 02:26:19;;;;;;;12.30;7.38;;;;;;;4.86;74.83;101337.44;5082556;28;20036;-87
2022/11/14 02:28:45;;;;;;;9.95;7.15;;;;;;;4.72;74.32;101315.72;5070399;28;20024;-88
2022/11/14 02:31:10;;;;;;;9.32;6.93;;;;;;;4.72;71.96;101328.81;5090229;28;20035;-88
2022/11/14 02:33:35;;;;;;;8.93;7.35;;;;;;;4.53;73.82;101301.06;5069834;28;20028;-88
2022/11/14 02:36:01;;;;;;;9.77;6.38;;;;;;;4.58;71.85;101320.22;5069789;28;20031;-88
2022/11/14 02:38:26;;;;;;;11.40;6.80;;;;;;;4.39;72.71;101308.16;5062805;28;20273;-87
2022/11/14 02:40:51;;;;;;;8.75;6.22;;;;;;;4.26;72.33;101305.59;5086887;28;20027;-88
2022/11/14 02:43:17;;;;;;;9.35;6.90;;;;;;;4.28;73.56;101322.16;5073325;28;20262;-88
2022/11/14 02:45:42;;;;;;;9.65;6.90;;;;;;;4.17;72.69;101320.50;5068417;28;20136;-88
2022/11/14 02:48:07;;;;;;;10.80;7.18;;;;;;;4.05;73.71;101310.94;5071845;28;20172;-88
2022/11/14 02:50:32;;;;;;;11.23;7.35;;;;;;;4.04;75.94;101310.09;5088346;28;20039;-87
2022/11/14 02:52:58;;;;;;;11.10;7.95;;;;;;;4.15;75.40;101320.50;5079127;28;20043;-87
2022/11/14 02:55:23;;;;;;;11.38;7.70;;;;;;;4.06;75.78;101303.13;5068696;28;20029;-88
2022/11/14 02:57:48;;;;;;;12.65;8.27;;;;;;;4.14;74.80;101303.06;5072323;28;20020;-87
2022/11/14 03:00:14;;;;;;;10.55;7.03;;;;;;;4.05;73.78;101287.41;5087660;28;20095;-88
2022/11/14 03:02:39;;;;;;;10.80;6.85;;;;;;;3.93;74.02;101285.75;5090084;28;20015;-87
2022/11/14 03:05:05;;;;;;;10.27;7.72;;;;;;;3.93;75.84;101280.53;5069913;28;20032;-88
2022/11/14 03:07:30;;;;;;;9.82;7.22;;;;;;;3.93;74.74;101280.53;5062948;28;20499;-88
2022/11/14 03:09:55;;;;;;;11.25;7.35;;;;;;;4.02;75.42;101304.00;5067569;28;20023;-87
2022/11/14 03:12:21;;;;;;;9.45;7.38;;;;;;;3.88;73.64;101284.03;5072844;28;20032;-88
2022/11/14 03:14:46;;;;;;;10.95;6.72;;;;;;;3.86;73.47;101277.94;5079824;28;20028;-87
2022/11/14 03:17:11;;;;;;;12.77;7.45;;;;;;;3.75;73.27;101272.78;5069832;28;20031;-87
2022/11/14 03:19:37;;;;;;;13.38;7.65;;;;;;;3.71;74.18;101279.75;5063544;28;20383;-88
2022/11/14 03:22:02;;;;;;;8.50;6.90;;;;;;;3.86;74.34;101293.63;5089836;28;20546;-88
2022/11/14 03:24:28;;;;;;;11.45;7.88;;;;;;;3.73;74.62;101261.44;5068138;28;20028;-88
2022/11/14 03:26:53;;;;;;;10.35;7.55;;;;;;;3.84;73.79;101278.81;5067217;28;20032;-88
2022/11/14 03:29:18;;;;;;;10.95;7.10;;;;;;;3.86;74.21;101270.09;5084978;28;20020;-88
2022/11/14 03:31:43;;;;;;;11.57;7.43;;;;;;;3.90;74.40;101293.59;5090407;28;20027;-88
2022/11/14 03:34:09;;;;;;;9.25;7.57;;;;;;;3.73;75.82;101267.56;5071275;28;20031;-88
2022/11/14 03:36:35;;;;;;;9.60;7.40;;;;;;;3.87;73.44;101290.13;5069351;28;20141;-88
2022/11/14 03:39:00;;;;;;;9.80;7.22;;;;;;;3.68;74.17;101266.69;5083223;28;20532;-88
2022/11/14 03:41:25;;;;;;;9.90;7.60;;;;;;;3.71;75.01;101273.66;5071537;28;20479;-88
2022/11/14 03:43:51;;;;;;;10.07;7.35;;;;;;;3.66;74.01;101260.59;5088850;28;20032;-88
2022/11/14 03:46:16;;;;;;;9.55;7.00;;;;;;;3.68;74.10;101271.91;5071371;28;20024;-88
2022/11/14 03:48:41;;;;;;;9.80;7.40;;;;;;;3.60;73.54;101267.63;5070160;28;20039;-88
2022/11/14 03:51:07;;;;;;;8.75;6.90;;;;;;;3.47;74.29;101253.72;5070362;28;20106;-88
2022/11/14 03:53:32;;;;;;;11.15;7.57;;;;;;;3.52;73.85;101268.50;5089131;28;20024;-88
2022/11/14 03:55:57;;;;;;;10.63;7.63;;;;;;;3.55;75.74;101265.91;5069030;28;20032;-88
2022/11/14 03:58:23;;;;;;;13.13;8.27;;;;;;;3.64;76.37;101253.63;5070942;28;20027;-88
2022/11/14 04:00:48;;;;;;;10.57;8.30;;;;;;;3.69;75.51;101257.13;5088047;28;20028;-88
2022/11/14 04:03:13;;;;;;;9.52;7.22;;;;;;;3.64;74.98;101249.31;5067464;28;20027;-89
2022/11/14 04:05:41;;;;;;;7.63;6.55;;;;;;;3.52;75.72;101234.53;5079845;28;20483;-88
2022/11/14 04:08:07;;;;;;;7.75;6.38;;;;;;;3.60;74.16;101258.03;5068557;28;20028;-88
2022/11/14 04:10:32;;;;;;;9.73;7.50;;;;;;;3.54;74.28;101250.19;5089131;28;20035;-88
2022/11/14 04:12:57;;;;;;;10.23;6.80;;;;;;;3.48;74.36;101237.16;5063970;28;20024;-89
2022/11/14 04:15:23;;;;;;;9.20;7.35;;;;;;;3.49;74.38;101245.00;5065506;28;20115;-89
2022/11/14 04:17:48;;;;;;;10.52;7.82;;;;;;;3.39;73.89;101229.38;5076416;28;20084;-88
2022/11/14 04:20:14;;;;;;;9.15;7.60;;;;;;;3.42;74.53;101238.06;5073376;28;20027;-88
2022/11/14 04:22:40;;;;;;;11.60;8.35;;;;;;;3.31;76.93;101227.69;5068101;28;20015;-88
2022/11/14 04:25:07;;;;;;;10.85;7.65;;;;;;;3.21;75.60;101217.25;5073183;28;20024;-88
2022/11/14 04:27:33;;;;;;;9.90;7.25;;;;;;;3.21;76.24;101212.03;5094433;28;20421;-88
2022/11/14 04:29:58;;;;;;;10.85;7.82;;;;;;;3.22;75.34;101238.16;5066373;28;20020;-88
2022/11/14 04:32:23;;;;;;;10.52;8.10;;;;;;;3.15;75.36;101225.13;5064089;28;20040;-88
2022/11/14 04:34:49;;;;;;;12.52;8.55;;;;;;;3.07;75.37;101225.13;5072107;28;20021;-88
2022/11/14 04:37:14;;;;;;;10.95;8.00;;;;;;;3.18;75.01;101240.78;5073252;28;20070;-88
2022/11/14 04:39:39;;;;;;;11.35;7.68;;;;;;;2.94;75.43;101216.50;5092814;28;20035;-88
2022/11/14 04:42:04;;;;;;;12.27;8.07;;;;;;;2.93;75.85;101217.34;5076164;28;20459;-88
2022/11/14 04:44:30;;;;;;;12.43;8.02;;;;;;;3.08;76.86;101221.66;5073363;28;20036;-90
2022/11/14 04:46:56;;;;;;;10.90;8.10;;;;;;;3.14;77.47;101212.94;5085880;28;20099;-88
2022/11/14 04:49:21;;;;;;;12.73;7.90;;;;;;;3.15;76.87;101220.75;5063429;28;20028;-88
2022/11/14 04:51:47;;;;;;;11.63;7.65;;;;;;;3.10;75.95;101219.03;5073926;28;20020;-88
2022/11/14 04:54:12;;;;;;;15.32;8.43;;;;;;;3.01;75.11;101210.34;5091565;28;20024;-88
2022/11/14 04:56:37;;;;;;;11.77;8.05;;;;;;;3.06;75.04;101218.19;5087863;28;20024;-88
2022/11/14 04:59:03;;;;;;;13.27;8.45;;;;;;;3.11;76.36;101210.31;5091131;28;20052;-88
2022/11/14 05:01:28;;;;;;;12.60;8.93;;;;;;;3.10;77.12;101203.38;5066068;28;20073;-88
2022/11/14 05:03:54;;;;;;;12.95;8.55;;;;;;;3.13;78.01;101213.81;5072672;28;20031;-87
2022/11/14 05:06:19;;;;;;;11.77;7.88;;;;;;;3.04;76.24;101212.97;5074459;28;20016;-87
2022/11/14 05:08:45;;;;;;;11.63;7.55;;;;;;;2.95;75.60;101205.16;5074484;28;20031;-88
2022/11/14 05:11:14;;;;;;;11.25;7.80;;;;;;;2.92;75.85;101215.59;5073805;28;20451;-88
2022/11/14 05:13:40;;;;;;;11.40;7.35;;;;;;;2.81;74.89;101206.94;5071225;28;20102;-88
2022/11/14 05:16:05;;;;;;;11.85;7.47;;;;;;;2.83;75.27;101210.41;5071867;28;20031;-88
2022/11/14 05:18:31;;;;;;;12.98;8.30;;;;;;;2.67;75.45;101190.44;5091300;28;20051;-89
2022/11/14 05:21:00;;;;;;;11.93;8.20;;;;;;;2.72;75.94;101202.59;5066655;28;20055;-88
2022/11/14 05:23:26;;;;;;;11.68;7.80;;;;;;;2.71;76.22;101181.72;5074169;28;20081;-88
2022/11/14 05:26:05;;;;;;;12.63;8.40;;;;;;;2.89;77.47;101205.19;5090898;28;20368;-88
2022/11/14 05:28:31;;;;;;;11.77;8.55;;;;;;;3.03;77.77;101195.56;5085216;28;20035;-88
2022/11/14 05:31:04;;;;;;;14.43;8.68;;;;;;;3.10;77.42;101185.09;5071849;28;20300;-88
2022/11/14 05:33:30;;;;;;;11.10;8.40;;;;;;;3.15;76.94;101181.56;5092585;28;20077;-87
2022/11/14 05:35:55;;;;;;;13.32;8.23;;;;;;;3.28;76.88;101198.06;5080494;28;20062;-87
2022/11/14 05:38:21;;;;;;;11.18;7.82;;;;;;;3.33;76.25;101204.13;5070086;28;20088;-88
2022/11/14 05:40:46;;;;;;;10.95;7.50;;;;;;;3.84;72.42;101187.28;5073265;28;20028;-88
2022/11/14 05:43:11;;;;;;;12.07;7.82;;;;;;;3.88;71.89;101189.88;5069816;28;20442;-88
2022/11/14 05:45:37;;;;;;;11.60;7.85;;;;;;;4.07;70.92;101167.94;5065906;28;20025;-88
2022/11/14 05:48:02;;;;;;;11.77;7.85;;;;;;;3.20;74.02;101176.31;5073203;28;20169;-88
2022/11/14 05:50:27;;;;;;;14.43;7.88;;;;;;;2.96;75.67;101175.56;5087702;28;20039;-87
2022/11/14 05:52:53;;;;;;;11.95;7.55;;;;;;;2.94;76.41;101176.44;5073710;28;20020;-88
2022/11/14 05:55:18;;;;;;;14.13;8.32;;;;;;;3.02;76.73;101188.56;5049316;28;20025;-87
2022/11/14 05:57:43;;;;;;;12.32;7.63;;;;;;;2.84;75.07;101154.69;5069267;28;20023;-88
2022/11/14 06:00:09;;;;;;;10.52;8.02;;;;;;;2.80;75.40;101159.09;5074987;28;20060;-88
2022/11/14 06:02:34;;;;;;;12.43;8.45;;;;;;;2.86;76.09;101176.47;5066608;28;20028;-88
2022/11/14 06:05:00;;;;;;;11.52;8.27;;;;;;;2.84;77.22;101180.81;5068665;28;20194;-88
2022/11/14 06:07:25;;;;;;;14.15;8.48;;;;;;;2.74;76.95;101160.81;5073524;28;20439;-88
2022/11/14 06:09:50;;;;;;;14.10;8.45;;;;;;;2.80;77.16;101174.75;5073689;28;20116;-88
2022/11/14 06:12:16;;;;;;;14.10;8.93;;;;;;;2.77;78.10;101173.88;5090354;28;20032;-88
2022/11/14 06:14:41;;;;;;;13.68;9.02;;;;;;;2.77;77.96;101176.50;5092909;28;20040;-88
2022/11/14 06:17:06;;;;;;;13.82;8.80;;;;;;;2.78;78.48;101178.22;5071325;28;20386;-87
2022/11/14 06:19:32;;;;;;;11.85;8.50;;;;;;;2.65;77.03;101173.91;5092961;28;20111;-88
2022/11/14 06:22:00;;;;;;;13.23;8.15;;;;;;;2.70;76.58;101193.88;5070445;28;20016;-88
2022/11/14 06:24:25;;;;;;;14.52;8.55;;;;;;;2.54;75.29;101184.38;5069012;28;20028;-88
2022/11/14 06:26:51;;;;;;;11.20;7.80;;;;;;;2.54;76.93;101202.63;5071279;28;20024;-87
2022/11/14 06:29:16;;;;;;;12.43;7.78;;;;;;;2.31;75.49;101168.75;5061370;28;20073;-88
2022/11/14 06:31:41;;;;;;;12.82;7.43;;;;;;;2.24;75.46;101172.25;5082891;28;20085;-88
2022/11/14 06:34:06;;;;;;;13.25;8.18;;;;;;;2.18;75.53;101170.47;5072673;28;20049;-88
2022/11/14 06:36:32;;;;;;;13.77;8.60;;;;;;;2.22;76.11;101181.78;5066066;28;20459;-89
2022/11/14 06:38:57;;;;;;;12.77;7.78;;;;;;;2.21;76.65;101180.06;5072077;28;20028;-88
2022/11/14 06:41:22;;;;;;;12.45;8.75;;;;;;;2.32;76.91;101183.50;5092368;28;20028;-89
2022/11/14 06:43:49;;;;;;;13.32;8.05;;;;;;;2.50;77.47;101196.53;5073922;28;21568;-88
2022/11/14 06:46:18;;;;;;;12.70;8.40;;;;;;;2.45;76.78;101192.22;5070897;28;20054;-88
2022/11/14 06:48:45;;;;;;;12.40;8.13;;;;;;;2.43;75.87;101176.56;5073942;28;20050;-89
2022/11/14 06:51:12;;;;;;;15.00;8.13;;;;;;;2.40;75.85;101183.53;5074194;28;20475;-88
2022/11/14 06:53:39;;;;;;;12.20;7.35;;;;;;;2.41;76.92;101191.34;5073051;28;20024;-88
2022/11/14 06:56:09;;;;;;;12.55;7.90;;;;;;;2.34;77.03;101181.78;5073350;28;20020;-89
2022/11/14 06:58:37;;;;;;;12.05;8.15;;;;;;;2.41;77.45;101187.88;5067509;28;20506;-88
2022/11/14 07:01:26;;;;;;;13.27;7.72;;;;;;;2.51;75.92;101210.47;5068892;28;20534;-88
2022/11/14 07:03:52;;;;;;;12.77;8.38;;;;;;;2.28;76.01;101173.94;5088399;28;20028;-88
2022/11/14 07:06:25;;;;;;;10.70;7.88;;;;;;;2.43;77.05;101209.63;5076721;28;20386;-88
2022/11/14 07:08:51;;;;;;;13.15;8.52;;;;;;;2.38;77.62;101211.34;5073781;28;20042;-88
2022/11/14 07:11:22;;;;;;;11.88;8.05;;;;;;;2.37;77.78;101210.47;5079925;28;20063;-88
2022/11/14 07:13:52;;;;;;;13.65;9.13;;;;;;;2.41;78.90;101213.94;5073790;28;20463;-87
2022/11/14 07:16:18;;;;;;;12.48;8.10;;;;;;;2.26;77.24;101191.34;5073445;28;20075;-88
2022/11/14 07:18:44;;;;;;;13.85;8.15;;;;;;;2.37;78.46;101205.25;5087258;28;20028;-88
2022/11/14 07:21:12;;;;;;;13.80;8.60;;;;;;;2.29;78.17;101178.31;5091569;28;20070;-88
2022/11/14 07:23:39;;;;;;;13.90;8.32;;;;;;;2.41;78.00;101201.78;5063958;28;20028;-87
2022/11/14 07:26:07;;;;;;;13.63;8.95;;;;;;;2.55;79.00;101210.47;5090616;28;20036;-88
2022/11/14 07:28:41;;;;;;;18.15;9.52;;;;;;;2.59;78.79;101192.19;5073188;28;20511;-88
2022/11/14 07:31:09;;;;;;;12.90;8.30;;;;;;;2.68;77.39;101195.66;5091741;28;20077;-88
2022/11/14 07:33:34;;;;;;;14.30;8.60;;;;;;;2.64;77.04;101183.47;5072724;28;20671;-87
2022/11/14 07:36:00;;;;;;;12.60;8.40;;;;;;;2.64;78.03;101190.44;5082949;28;20025;-88
2022/11/14 07:38:26;;;;;;;13.93;8.82;;;;;;;2.77;76.97;101194.75;5087066;28;20039;-88
2022/11/14 07:40:56;;;;;;;19.30;9.93;;;;;;;2.74;77.82;101186.94;5086517;28;20032;-88
2022/11/14 07:43:22;;;;;;;13.18;9.10;;;;;;;2.75;76.85;101186.03;5085842;28;20108;-88
2022/11/14 07:45:47;;;;;;;27.63;8.48;;;;;;;2.69;77.43;101176.50;5072178;28;20114;-87
2022/11/14 07:48:12;;;;;;;13.10;8.73;;;;;;;2.70;78.16;101167.78;5063761;28;20495;-88
2022/11/14 07:50:37;;;;;;;16.05;9.60;;;;;;;2.82;78.86;101179.94;5065341;28;20646;-87
2022/11/14 07:53:03;;;;;;;15.40;9.15;;;;;;;2.81;79.87;101176.47;5073313;28;20023;-88
2022/11/14 07:55:28;;;;;;;14.18;9.20;;;;;;;2.91;79.27;101171.22;5090129;28;20023;-87
2022/11/14 07:57:54;;;;;;;14.45;9.73;;;;;;;3.21;79.23;101165.84;5069177;28;20467;-87
2022/11/14 08:00:19;;;;;;;13.77;9.05;;;;;;;3.58;78.10;101170.88;5071802;28;20024;-87
2022/11/14 08:02:46;;;;;;;13.13;9.68;;;;;;;3.95;78.31;101175.88;5073711;28;20034;-87
2022/11/14 08:05:12;;;;;;;15.43;9.20;;;;;;;4.39;77.60;101188.59;5063256;28;20035;-87
2022/11/14 08:07:38;;;;;;;12.68;9.57;;;;;;;4.79;75.90;101182.94;5064191;28;20490;-87
2022/11/14 08:10:05;;;;;;;11.82;8.40;;;;;;;5.42;74.25;101176.94;5069244;28;20039;-89
2022/11/14 08:12:30;;;;;;;12.40;8.93;;;;;;;6.00;72.06;101155.97;5072875;28;20032;-86
2022/11/14 08:14:56;;;;;;;15.05;9.13;;;;;;;6.35;71.04;101154.53;5068447;28;20536;-86
2022/11/14 08:17:22;;;;;;;14.10;8.85;;;;;;;6.92;71.22;101156.09;5085010;28;20072;-86
2022/11/14 08:19:47;;;;;;;11.65;8.90;;;;;;;6.72;70.44;101143.34;5059154;28;20020;-86
2022/11/14 08:22:12;;;;;;;15.75;8.75;;;;;;;6.74;70.32;101154.69;5088662;28;20073;-86
2022/11/14 08:24:38;;;;;;;11.60;8.27;;;;;;;7.07;68.92;101155.75;5066591;28;20444;-86
2022/11/14 08:27:03;;;;;;;12.98;9.25;;;;;;;7.37;69.65;101146.38;5086000;28;20035;-87
2022/11/14 08:29:28;;;;;;;12.30;7.78;;;;;;;7.64;68.40;101158.88;5088744;28;20552;-86
2022/11/14 08:31:54;;;;;;;12.95;8.52;;;;;;;7.97;68.53;101161.63;5070057;28;20031;-86
2022/11/14 08:34:21;;;;;;;11.43;8.73;;;;;;;8.40;66.32;101150.06;5071250;28;20112;-86
2022/11/14 08:36:46;;;;;;;12.10;8.20;;;;;;;9.70;62.92;101139.25;5068323;28;20032;-86
2022/11/14 08:39:12;;;;;;;11.60;8.00;;;;;;;10.34;60.54;101133.63;5091779;28;20028;-85
2022/11/14 08:41:37;;;;;;;11.85;8.50;;;;;;;9.68;61.55;101151.59;5090053;28;20085;-86
2022/11/14 08:44:02;;;;;;;13.27;8.82;;;;;;;8.93;62.97;101135.41;5073734;28;20020;-86
2022/11/14 08:46:27;;;;;;;13.65;8.45;;;;;;;8.49;65.60;101136.66;5072759;28;20299;-86
2022/11/14 08:48:53;;;;;;;11.40;7.80;;;;;;;8.19;66.16;101131.22;5058325;28;20045;-87
2022/11/14 08:51:18;;;;;;;12.80;8.50;;;;;;;7.81;66.87;101145.34;5086380;28;20032;-86
2022/11/14 08:53:43;;;;;;;14.75;9.02;;;;;;;7.43;67.77;101133.06;5090305;28;20023;-86
2022/11/14 08:56:10;;;;;;;14.18;8.68;;;;;;;7.41;68.57;101138.38;5065581;28;20020;-86
2022/11/14 08:58:35;;;;;;;12.40;9.02;;;;;;;7.15;69.32;101123.16;5088074;28;20024;-87
2022/11/14 09:01:06;;;;;;;16.67;9.70;;;;;;;7.23;69.53;101130.00;5081923;28;20025;-86
2022/11/14 09:03:32;;;;;;;14.30;9.15;;;;;;;8.01;68.89;101126.41;5094977;28;20008;-87
2022/11/14 09:05:57;;;;;;;11.52;8.68;;;;;;;9.87;64.08;101121.97;5091173;28;20032;-86
2022/11/14 09:08:23;;;;;;;11.32;8.02;;;;;;;11.95;58.49;101117.84;5072292;28;20028;-86
2022/11/14 09:10:48;;;;;;;12.13;8.32;;;;;;;13.62;53.19;101128.97;5091981;28;20047;-86
2022/11/14 09:13:14;;;;;;;17.23;8.60;;;;;;;14.50;49.70;101115.69;5075153;28;20043;-87
2022/11/14 09:15:40;;;;;;;11.77;8.20;;;;;;;15.27;48.53;101106.25;5070734;28;20835;-86
2022/11/14 09:18:05;;;;;;;16.33;8.88;;;;;;;16.83;45.09;101119.34;5094918;28;20059;-86
2022/11/14 09:20:30;;;;;;;10.68;7.38;;;;;;;17.53;43.07;101119.38;5093500;28;20032;-87
2022/11/14 09:23:00;;;;;;;12.48;8.10;;;;;;;18.24;42.32;101117.41;5071037;28;20019;-87
2022/11/14 09:25:26;;;;;;;12.18;8.10;;;;;;;18.55;39.87;101108.09;5064843;28;20032;-86
2022/11/14 09:27:52;;;;;;;12.13;7.85;;;;;;;19.19;39.67;101116.13;5073351;28;20506;-86
2022/11/14 09:30:17;;;;;;;12.75;8.05;;;;;;;19.27;38.24;101098.53;5071463;28;20067;-87
2022/11/14 09:32:43;;;;;;;10.43;7.88;;;;;;;19.55;38.02;101105.41;5093011;28;20579;-86
2022/11/14 09:35:08;;;;;;;12.27;7.88;;;;;;;19.71;37.71;101105.16;5070307;28;20368;-86
2022/11/14 09:37:33;;;;;;;13.68;8.43;;;;;;;20.10;37.51;101104.00;5090073;28;20517;-87
2022/11/14 09:39:59;;;;;;;10.70;8.00;;;;;;;20.16;38.09;101089.25;5090186;28;20035;-86
2022/11/14 09:42:34;;;;;;;11.13;8.27;;;;;;;21.13;35.93;101096.00;5075935;28;20081;-87
2022/11/14 09:45:02;;;;;;;11.07;8.32;;;;;;;21.83;33.71;101076.78;5088460;28;20036;-89
2022/11/14 09:47:34;;;;;;;8.95;7.80;;;;;;;22.02;33.07;101086.03;5088129;28;20514;-87
2022/11/14 09:50:04;;;;;;;;;;;;;;;21.82;38.52;101102.00;5067065;28;20871;-88
2022/11/14 09:52:35;;;;;;;10.30;7.80;;;;;;;22.00;33.10;101104.97;5072137;28;19946;-87
2022/11/14 09:55:12;;;;;;;10.47;8.47;;;;;;;21.94;35.46;101105.50;5069579;28;20016;-87
2022/11/14 09:57:39;;;;;;;9.77;8.40;;;;;;;22.01;32.52;101105.81;5074171;28;20050;-87
2022/11/14 10:00:19;;;;;;;11.52;8.23;;;;;;;22.28;34.41;101106.22;5094441;28;20065;-88
2022/11/14 10:03:07;;;;;;;11.48;9.60;;;;;;;22.27;33.04;101099.13;5069274;28;20673;-87
2022/11/14 10:05:48;;;;;;;11.45;9.38;;;;;;;23.07;33.39;101097.59;5090521;28;20502;-88
2022/11/14 10:08:29;;;;;;;12.55;9.07;;;;;;;22.94;31.12;101095.13;5093160;28;20489;-87
2022/11/14 10:11:00;;;;;;;10.73;8.93;;;;;;;23.50;30.14;101100.03;5072428;28;20031;-87
2022/11/14 10:13:28;;;;;;;11.75;9.63;;;;;;;23.54;31.13;101097.88;5067201;28;20043;-88
2022/11/14 10:15:57;;;;;;;12.70;9.13;;;;;;;23.32;30.06;101099.84;5082352;28;20100;-87
2022/11/14 10:18:35;;;;;;;11.50;9.80;;;;;;;23.40;32.91;101105.38;5091997;28;20055;-87
2022/11/14 10:21:19;;;;;;;12.15;9.07;;;;;;;22.49;33.63;101108.06;5089101;28;20383;-88
2022/11/14 10:24:23;;;;;;;10.93;9.20;;;;;;;21.73;33.26;101097.38;5071658;28;20024;-88
2022/11/14 10:27:03;;;;;;;13.52;9.88;;;;;;;22.35;33.71;101093.09;5089393;28;20043;-88
2022/11/14 10:29:51;;;;;;;13.30;10.48;;;;;;;22.59;32.84;101090.13;5072689;28;20028;-87
2022/11/14 10:32:29;;;;;;;12.85;9.88;;;;;;;22.60;33.44;101075.66;5066151;28;20039;-87
2022/11/14 10:35:07;;;;;;;12.90;9.90;;;;;;;23.19;32.79;101093.84;5081155;28;20482;-86
2022/11/14 10:38:20;;;;;;;13.00;10.30;;;;;;;22.81;33.17;101079.19;5084969;28;20028;-87
2022/11/14 10:40:51;;;;;;;11.85;9.68;;;;;;;23.06;32.04;101077.88;5074391;28;20051;-87
2022/11/14 10:43:23;;;;;;;12.93;10.88;;;;;;;22.45;30.63;101072.44;5072989;28;20491;-87
2022/11/14 10:45:55;;;;;;;11.48;9.93;;;;;;;22.86;31.44;101078.78;5088148;28;20028;-87
2022/11/14 10:48:33;;;;;;;16.02;10.52;;;;;;;22.91;32.89;101077.41;5083130;28;20059;-87
2022/11/14 10:51:09;;;;;;;12.90;11.30;;;;;;;23.21;31.09;101075.66;5073077;28;20027;-87
2022/11/14 10:53:56;;;;;;;13.02;10.25;;;;;;;23.77;30.88;101082.31;5084739;28;20028;-87
2022/11/14 10:56:21;;;;;;;11.60;10.40;;;;;;;23.81;30.26;101057.59;5088427;28;20031;-88
2022/11/14 10:58:46;;;;;;;14.07;10.25;;;;;;;23.99;28.86;101068.53;5074544;28;20101;-88
2022/11/14 11:01:35;;;;;;;14.27;11.60;;;;;;;23.88;32.01;101064.16;5092254;28;20024;-87
2022/11/14 11:04:23;;;;;;;14.57;11.70;;;;;;;23.64;31.97;101064.56;5072557;28;20024;-88
2022/11/14 11:06:50;;;;;;;13.63;10.93;;;;;;;23.60;30.81;101062.25;5073886;28;20024;-89
2022/11/14 11:12:07;;;;;;;15.63;12.00;;;;;;;23.34;30.15;101053.81;5088410;28;20387;-87
2022/11/14 11:14:34;;;;;;;13.88;11.65;;;;;;;23.61;30.46;101050.47;5070180;28;20016;-88
2022/11/14 11:17:11;;;;;;;14.70;12.45;;;;;;;23.92;30.97;101043.09;5085467;28;20039;-86
2022/11/14 11:19:38;;;;;;;15.35;12.55;;;;;;;23.91;29.34;101027.88;5071569;28;20028;-88
2022/11/14 11:22:04;;;;;;;14.38;12.88;;;;;;;23.38;31.53;101037.22;5092565;28;20031;-89
2022/11/14 11:24:36;;;;;;;17.33;12.40;;;;;;;23.54;31.59;101031.25;5089067;28;20542;-88
2022/11/14 11:27:14;;;;;;;15.35;12.95;;;;;;;23.58;30.20;101018.34;5059180;28;20499;-93
2022/11/14 11:29:40;;;;;;;20.13;13.65;;;;;;;23.78;30.82;101009.28;5066451;28;20648;-88